Time;durP1;ratioP1;P1;durP2;ratioP2;P2;SDS_P1;SDS_P2;PMS_P1;PMS_P2;Temp;Humidity;BMP_temperature;BMP_pressure;BME280_temperature;BME280_humidity;BME280_pressure;Samples;Min_cycle;Max_cycle;Signal;HPM_P1;HPM_P2
2022/03/15 00:02:18;;;;;;;14.83;11.23;;;;;;;1.80;73.99;100844.41;4904378;29;20321;-80
2022/03/15 00:04:44;;;;;;;17.63;12.40;;;;;;;1.78;74.06;100852.47;4907431;29;20252;-79
2022/03/15 00:07:13;;;;;;;13.47;11.47;;;;;;;1.77;73.79;100850.78;4907690;29;20247;-80
2022/03/15 00:09:40;;;;;;;15.23;11.83;;;;;;;1.77;73.91;100853.44;4898170;29;20350;-81
2022/03/15 00:12:09;;;;;;;15.97;12.10;;;;;;;1.75;74.12;100852.75;4905020;29;20227;-79
2022/03/15 00:14:37;;;;;;;14.53;11.90;;;;;;;1.78;73.52;100841.91;4907468;29;20277;-79
2022/03/15 00:17:05;;;;;;;16.47;11.57;;;;;;;1.69;74.49;100842.69;4901481;29;20324;-79
2022/03/15 00:19:32;;;;;;;14.07;11.53;;;;;;;1.68;74.26;100843.66;4907334;29;20239;-78
2022/03/15 00:21:59;;;;;;;14.67;11.73;;;;;;;1.66;74.46;100842.97;4899395;29;20238;-80
2022/03/15 00:24:26;;;;;;;13.77;11.23;;;;;;;1.65;74.27;100848.38;4908296;29;20660;-79
2022/03/15 00:26:54;;;;;;;14.17;11.57;;;;;;;1.63;74.01;100848.50;4920170;29;20238;-78
2022/03/15 00:29:23;;;;;;;14.90;11.03;;;;;;;1.58;74.80;100845.44;4918120;29;20733;-78
2022/03/15 00:31:50;;;;;;;14.00;11.53;;;;;;;1.56;74.75;100835.97;4914817;29;20247;-78
2022/03/15 00:34:17;;;;;;;14.80;11.87;;;;;;;1.50;75.41;100833.84;4910593;29;20343;-79
2022/03/15 00:36:44;;;;;;;15.47;11.73;;;;;;;1.46;75.39;100829.81;4919987;29;20237;-79
2022/03/15 00:39:11;;;;;;;15.03;11.97;;;;;;;1.44;75.83;100824.69;4902987;29;20260;-79
2022/03/15 00:41:38;;;;;;;14.57;12.03;;;;;;;1.41;75.59;100824.09;4905481;29;20517;-79
2022/03/15 00:44:05;;;;;;;15.43;12.27;;;;;;;1.45;74.99;100823.69;4902229;29;20318;-79
2022/03/15 00:46:32;;;;;;;16.83;11.63;;;;;;;1.32;75.41;100817.78;4909824;29;20591;-79
2022/03/15 00:48:59;;;;;;;14.77;11.87;;;;;;;1.26;76.36;100821.78;4902370;29;20245;-79
2022/03/15 00:51:29;;;;;;;15.30;12.50;;;;;;;1.18;77.36;100826.88;4911196;29;20233;-79
2022/03/15 00:53:57;;;;;;;14.50;12.40;;;;;;;1.15;77.38;100821.03;4912738;29;20238;-79
2022/03/15 00:56:24;;;;;;;16.77;13.70;;;;;;;1.17;77.79;100819.09;4909108;29;20257;-79
2022/03/15 00:58:51;;;;;;;16.70;12.33;;;;;;;1.12;77.17;100808.94;4908126;29;20247;-79
2022/03/15 01:01:18;;;;;;;16.67;12.67;;;;;;;1.13;76.48;100818.53;4903403;29;20284;-79
2022/03/15 01:03:45;;;;;;;15.90;12.90;;;;;;;1.07;77.50;100811.16;4909960;29;20229;-79
2022/03/15 01:06:12;;;;;;;15.90;12.47;;;;;;;1.01;77.92;100816.09;4911130;29;20297;-79
2022/03/15 01:08:38;;;;;;;16.10;12.70;;;;;;;0.91;78.64;100816.03;4910288;29;20231;-79
2022/03/15 01:11:06;;;;;;;15.27;13.10;;;;;;;0.91;78.85;100818.66;4903229;29;20254;-79
2022/03/15 01:13:33;;;;;;;15.33;12.57;;;;;;;0.91;79.20;100820.47;4906776;29;20273;-79
2022/03/15 01:15:59;;;;;;;18.87;13.00;;;;;;;0.88;79.54;100813.66;4904350;29;20282;-79
2022/03/15 01:18:27;;;;;;;15.60;13.37;;;;;;;0.89;80.12;100810.88;4907873;29;20233;-79
2022/03/15 01:20:56;;;;;;;17.00;12.63;;;;;;;0.89;80.58;100815.31;4904042;29;20256;-78
2022/03/15 01:23:23;;;;;;;14.50;12.37;;;;;;;0.90;79.64;100811.72;4913019;29;20309;-78
2022/03/15 01:25:50;;;;;;;14.83;12.40;;;;;;;0.88;80.52;100818.94;4907640;29;20249;-79
2022/03/15 01:28:18;;;;;;;16.67;12.00;;;;;;;0.85;80.39;100814.75;4910562;29;20338;-79
2022/03/15 01:30:44;;;;;;;13.73;12.30;;;;;;;0.89;80.11;100808.22;4915170;29;20226;-79
2022/03/15 01:33:11;;;;;;;13.43;11.97;;;;;;;0.96;80.69;100808.56;4914164;29;20237;-78
2022/03/15 01:35:40;;;;;;;14.23;11.17;;;;;;;0.97;80.75;100812.03;4914260;29;20615;-79
2022/03/15 01:38:07;;;;;;;14.73;11.53;;;;;;;1.00;80.24;100804.69;4908496;29;20310;-78
2022/03/15 01:40:35;;;;;;;16.53;12.30;;;;;;;1.06;80.24;100804.19;4911678;29;20227;-79
2022/03/15 01:43:02;;;;;;;15.37;11.27;;;;;;;1.04;80.30;100807.91;4910961;29;20293;-79
2022/03/15 01:45:34;;;;;;;15.50;12.17;;;;;;;0.97;79.83;100799.69;4908571;29;20257;-79
2022/03/15 01:48:05;;;;;;;16.73;12.10;;;;;;;1.00;79.33;100806.50;4910729;29;20233;-79
2022/03/15 01:50:32;;;;;;;13.03;11.63;;;;;;;0.93;79.21;100797.44;4913305;29;20741;-79
2022/03/15 01:52:59;;;;;;;16.43;12.90;;;;;;;0.85;80.65;100798.91;4914960;29;20257;-79
2022/03/15 01:55:26;;;;;;;15.87;13.03;;;;;;;0.78;81.10;100797.78;4902209;29;20705;-79
2022/03/15 01:57:56;;;;;;;15.57;13.20;;;;;;;0.70;81.00;100802.03;4906650;29;20314;-79
2022/03/15 02:00:23;;;;;;;17.47;13.63;;;;;;;0.68;81.10;100799.50;4910195;29;20245;-79
2022/03/15 02:02:50;;;;;;;18.77;14.33;;;;;;;0.70;80.86;100808.09;4909495;29;20242;-78
2022/03/15 02:05:17;;;;;;;19.73;15.07;;;;;;;0.70;81.07;100794.91;4903897;29;20615;-79
2022/03/15 02:07:45;;;;;;;17.53;14.23;;;;;;;0.65;80.81;100812.94;4909108;29;20643;-79
2022/03/15 02:10:11;;;;;;;20.10;14.57;;;;;;;0.53;81.40;100800.75;4905438;29;20226;-79
2022/03/15 02:12:38;;;;;;;18.70;14.37;;;;;;;0.52;82.35;100804.34;4913605;29;20295;-78
2022/03/15 02:15:07;;;;;;;19.63;13.93;;;;;;;0.53;82.95;100800.75;4914959;29;20234;-79
2022/03/15 02:17:36;;;;;;;18.93;14.27;;;;;;;0.48;83.95;100791.56;4912143;29;20239;-80
2022/03/15 02:20:07;;;;;;;18.70;14.17;;;;;;;0.49;84.13;100790.59;4914316;29;20238;-78
2022/03/15 02:22:34;;;;;;;21.37;14.50;;;;;;;0.48;84.22;100784.47;4911947;29;20261;-79
2022/03/15 02:25:04;;;;;;;18.23;14.87;;;;;;;0.47;84.11;100788.06;4905793;29;20244;-79
2022/03/15 02:27:31;;;;;;;17.50;13.80;;;;;;;0.43;84.87;100797.19;4911738;29;20238;-79
2022/03/15 02:29:58;;;;;;;18.70;14.43;;;;;;;0.44;84.29;100797.09;4910720;29;20341;-79
2022/03/15 02:32:25;;;;;;;18.43;14.37;;;;;;;0.42;84.52;100798.19;4912664;29;20265;-78
2022/03/15 02:34:52;;;;;;;18.23;13.90;;;;;;;0.41;84.38;100796.50;4916198;29;20324;-79
2022/03/15 02:37:19;;;;;;;15.83;13.47;;;;;;;0.38;84.80;100799.38;4903284;29;20290;-78
2022/03/15 02:39:45;;;;;;;17.93;14.47;;;;;;;0.41;85.32;100807.06;4913885;29;20249;-78
2022/03/15 02:42:12;;;;;;;17.40;13.80;;;;;;;0.35;85.30;100800.47;4913407;29;20329;-78
2022/03/15 02:44:39;;;;;;;16.37;13.63;;;;;;;0.38;85.29;100805.50;4912910;29;20262;-78
2022/03/15 02:47:05;;;;;;;16.07;13.60;;;;;;;0.33;86.02;100801.56;4914270;29;20237;-78
2022/03/15 02:49:32;;;;;;;19.50;14.13;;;;;;;0.31;87.35;100795.59;4914023;29;20241;-79
2022/03/15 02:51:59;;;;;;;17.73;14.40;;;;;;;0.32;87.72;100792.00;4912350;29;20598;-79
2022/03/15 02:54:26;;;;;;;17.00;13.77;;;;;;;0.27;88.11;100799.44;4910738;29;20334;-79
2022/03/15 02:56:52;;;;;;;16.77;13.77;;;;;;;0.26;89.23;100795.97;4911693;29;20307;-79
2022/03/15 02:59:19;;;;;;;19.37;14.00;;;;;;;0.30;89.02;100805.28;4908439;29;20234;-79
2022/03/15 03:01:48;;;;;;;18.03;14.13;;;;;;;0.30;89.14;100807.94;4901395;29;20231;-79
2022/03/15 03:04:21;;;;;;;19.60;14.60;;;;;;;0.28;89.03;100798.50;4905365;29;20237;-79
2022/03/15 03:06:48;;;;;;;16.50;13.40;;;;;;;0.29;89.45;100800.97;4906530;29;20296;-78
2022/03/15 03:09:16;;;;;;;19.13;14.27;;;;;;;0.30;89.35;100804.44;4910457;29;20237;-78
2022/03/15 03:11:43;;;;;;;16.83;13.63;;;;;;;0.29;89.33;100795.69;4911180;29;20230;-78
2022/03/15 03:14:12;;;;;;;18.97;14.90;;;;;;;0.21;90.16;100792.03;4913335;29;20293;-78
2022/03/15 03:16:40;;;;;;;17.10;13.43;;;;;;;0.11;91.64;100796.38;4913287;29;20736;-78
2022/03/15 03:19:08;;;;;;;17.80;14.00;;;;;;;0.08;93.25;100796.63;4910141;29;20784;-78
2022/03/15 03:21:38;;;;;;;17.07;14.10;;;;;;;0.07;93.05;100798.41;4905720;29;20319;-78
2022/03/15 03:24:06;;;;;;;16.13;13.13;;;;;;;0.05;92.56;100795.06;4904828;29;20321;-78
2022/03/15 03:26:36;;;;;;;18.60;14.70;;;;;;;0.02;95.15;100799.75;4911938;29;20238;-78
2022/03/15 03:29:09;;;;;;;21.07;15.40;;;;;;;-0.07;95.31;100788.16;4908428;29;20234;-79
2022/03/15 03:31:43;;;;;;;16.50;14.33;;;;;;;-0.03;95.50;100792.22;4906718;29;20249;-79
2022/03/15 03:34:11;;;;;;;16.80;13.60;;;;;;;-0.09;96.84;100795.34;4908900;29;20335;-78
2022/03/15 03:36:39;;;;;;;18.03;14.07;;;;;;;0.01;95.12;100798.91;4901667;29;20238;-78
2022/03/15 03:39:25;;;;;;;17.27;13.97;;;;;;;-0.20;95.94;100804.13;4903869;29;20321;-79
2022/03/15 03:41:53;;;;;;;18.07;13.83;;;;;;;-0.26;97.44;100803.75;4907330;29;20244;-78
2022/03/15 03:44:20;;;;;;;18.30;14.00;;;;;;;-0.23;96.47;100800.88;4909094;29;20325;-78
2022/03/15 03:46:46;;;;;;;19.40;14.63;;;;;;;-0.23;96.60;100793.81;4911159;29;20654;-79
2022/03/15 03:49:13;;;;;;;17.67;13.90;;;;;;;-0.30;98.28;100790.00;4910598;29;20268;-78
2022/03/15 03:51:40;;;;;;;16.33;14.07;;;;;;;-0.21;97.44;100793.69;4911473;29;20341;-78
2022/03/15 03:54:08;;;;;;;17.73;14.13;;;;;;;-0.29;98.35;100794.31;4913607;29;20241;-77
2022/03/15 03:56:35;;;;;;;17.43;14.10;;;;;;;-0.31;100.00;100798.00;4912151;29;20248;-77
2022/03/15 03:59:02;;;;;;;19.00;14.00;;;;;;;-0.34;100.00;100798.28;4914659;29;20233;-77
2022/03/15 04:01:29;;;;;;;15.93;13.43;;;;;;;-0.34;100.00;100793.00;4906565;29;20238;-77
2022/03/15 04:04:03;;;;;;;16.37;13.53;;;;;;;-0.38;100.00;100792.41;4906646;29;20234;-77
2022/03/15 04:06:29;;;;;;;17.30;14.03;;;;;;;-0.39;100.00;100788.09;4911711;29;20325;-77
2022/03/15 04:08:58;;;;;;;16.40;14.10;;;;;;;-0.23;100.00;100792.97;4910543;29;20240;-78
2022/03/15 04:11:26;;;;;;;16.97;13.93;;;;;;;-0.35;100.00;100784.25;4912229;29;20661;-78
2022/03/15 04:13:52;;;;;;;17.20;13.77;;;;;;;-0.37;100.00;100788.00;4912458;29;20233;-78
2022/03/15 04:16:19;;;;;;;16.77;14.33;;;;;;;-0.39;100.00;100790.72;4907371;29;20234;-78
2022/03/15 04:18:46;;;;;;;16.73;13.73;;;;;;;-0.39;100.00;100789.91;4911854;29;20242;-77
2022/03/15 04:21:13;;;;;;;16.53;12.90;;;;;;;-0.42;100.00;100790.97;4907803;29;20238;-78
2022/03/15 04:23:40;;;;;;;18.50;13.73;;;;;;;-0.40;100.00;100789.06;4911681;29;20324;-78
2022/03/15 04:26:07;;;;;;;17.90;14.07;;;;;;;-0.46;100.00;100793.00;4907913;29;20257;-78
2022/03/15 04:28:33;;;;;;;18.10;14.10;;;;;;;-0.45;100.00;100791.22;4909343;29;20814;-78
2022/03/15 04:31:00;;;;;;;18.70;14.80;;;;;;;-0.31;100.00;100790.13;4907663;29;20761;-78
2022/03/15 04:33:27;;;;;;;17.50;14.20;;;;;;;-0.43;100.00;100788.47;4912227;29;20234;-78
2022/03/15 04:35:54;;;;;;;17.90;14.23;;;;;;;-0.49;100.00;100784.50;4909150;29;20268;-79
2022/03/15 04:38:21;;;;;;;16.83;13.50;;;;;;;-0.47;100.00;100783.41;4907624;29;20247;-77
2022/03/15 04:40:52;;;;;;;17.00;13.80;;;;;;;-0.48;100.00;100778.28;4910836;29;20793;-78
2022/03/15 04:43:18;;;;;;;17.97;14.40;;;;;;;-0.48;100.00;100783.56;4899320;29;20258;-78
2022/03/15 04:45:45;;;;;;;17.97;13.80;;;;;;;-0.50;100.00;100788.09;4905814;29;20318;-78
2022/03/15 04:48:13;;;;;;;18.90;14.10;;;;;;;-0.50;100.00;100781.03;4907132;29;20614;-76
2022/03/15 04:50:40;;;;;;;17.17;14.40;;;;;;;-0.49;100.00;100784.50;4908365;29;20237;-77
2022/03/15 04:53:07;;;;;;;20.77;14.30;;;;;;;-0.43;100.00;100785.84;4918053;29;20234;-78
2022/03/15 04:55:34;;;;;;;19.10;14.40;;;;;;;-0.39;100.00;100784.63;4908513;29;20317;-77
2022/03/15 04:58:01;;;;;;;19.37;14.53;;;;;;;-0.47;100.00;100787.88;4915806;29;20755;-77
2022/03/15 05:00:28;;;;;;;19.87;15.13;;;;;;;-0.47;100.00;100777.34;4910567;29;20225;-78
2022/03/15 05:02:57;;;;;;;17.57;14.60;;;;;;;-0.46;100.00;100782.47;4909142;29;20242;-77
2022/03/15 05:05:23;;;;;;;21.27;14.30;;;;;;;-0.52;100.00;100782.97;4907809;29;20238;-77
2022/03/15 05:07:50;;;;;;;18.07;14.50;;;;;;;-0.46;100.00;100784.25;4912885;29;20311;-78
2022/03/15 05:13:02;;;;;;;18.13;14.27;;;;;;;-0.42;100.00;100787.50;4908564;29;20233;-77
2022/03/15 05:15:29;;;;;;;19.23;14.73;;;;;;;-0.43;100.00;100777.94;4910242;29;20230;-77
2022/03/15 05:17:56;;;;;;;19.80;15.27;;;;;;;-0.42;100.00;100782.25;4915202;29;20248;-78
2022/03/15 05:20:23;;;;;;;17.57;14.00;;;;;;;-0.40;100.00;100778.53;4915719;29;20233;-78
2022/03/15 05:22:49;;;;;;;19.37;15.20;;;;;;;-0.39;100.00;100779.34;4909599;29;20647;-78
2022/03/15 05:25:16;;;;;;;19.97;16.03;;;;;;;-0.33;100.00;100779.72;4915766;29;20234;-79
2022/03/15 05:27:43;;;;;;;16.63;14.87;;;;;;;-0.26;100.00;100773.00;4914304;29;20726;-78
2022/03/15 05:30:10;;;;;;;18.23;14.67;;;;;;;-0.17;100.00;100777.53;4915180;29;20230;-78
2022/03/15 05:32:37;;;;;;;21.00;15.00;;;;;;;-0.08;100.00;100776.78;4907839;29;20226;-78
2022/03/15 05:35:06;;;;;;;18.90;15.00;;;;;;;-0.05;100.00;100773.06;4910595;29;20289;-78
2022/03/15 05:37:33;;;;;;;23.83;16.37;;;;;;;0.06;100.00;100772.19;4903879;29;20235;-78
2022/03/15 05:40:00;;;;;;;18.90;15.03;;;;;;;0.11;100.00;100776.13;4913550;29;20229;-78
2022/03/15 05:42:27;;;;;;;20.50;14.33;;;;;;;0.22;100.00;100777.91;4910533;29;20238;-79
2022/03/15 05:44:54;;;;;;;20.43;15.03;;;;;;;0.31;100.00;100777.13;4908221;29;20322;-78
2022/03/15 05:47:20;;;;;;;17.60;14.77;;;;;;;0.44;100.00;100778.63;4915743;29;20744;-79
2022/03/15 05:49:47;;;;;;;16.60;13.83;;;;;;;0.54;100.00;100776.06;4908845;29;20262;-78
2022/03/15 05:52:14;;;;;;;18.67;14.63;;;;;;;0.63;100.00;100777.94;4904794;29;20237;-78
2022/03/15 05:54:41;;;;;;;19.07;14.17;;;;;;;0.70;100.00;100771.16;4913812;29;20583;-78
2022/03/15 05:57:08;;;;;;;16.80;13.63;;;;;;;0.85;100.00;100769.03;4914991;29;20317;-78
2022/03/15 05:59:35;;;;;;;18.90;13.63;;;;;;;0.93;100.00;100757.88;4909238;29;20238;-78
2022/03/15 06:02:01;;;;;;;17.83;13.93;;;;;;;1.15;100.00;100760.34;4906586;29;20269;-79
2022/03/15 06:04:28;;;;;;;19.30;13.23;;;;;;;1.35;100.00;100759.47;4913071;29;20242;-79
2022/03/15 06:06:56;;;;;;;18.53;14.37;;;;;;;1.52;98.70;100756.16;4912855;29;20229;-78
2022/03/15 06:09:24;;;;;;;15.13;13.27;;;;;;;1.67;95.98;100764.56;4911059;29;20293;-78
2022/03/15 06:11:54;;;;;;;13.13;11.63;;;;;;;1.82;93.58;100760.53;4907838;29;20243;-78
2022/03/15 06:14:22;;;;;;;14.40;11.53;;;;;;;1.97;90.17;100756.53;4905125;29;20238;-77
2022/03/15 06:16:49;;;;;;;12.70;11.07;;;;;;;2.14;87.80;100762.97;4907178;29;20240;-78
2022/03/15 06:19:17;;;;;;;13.40;11.10;;;;;;;2.30;84.42;100759.75;4909621;29;20627;-78
2022/03/15 06:21:44;;;;;;;12.87;11.10;;;;;;;2.51;82.83;100753.38;4913262;29;20676;-78
2022/03/15 06:24:11;;;;;;;15.03;10.87;;;;;;;2.66;80.57;100754.59;4914219;29;20305;-79
2022/03/15 06:26:38;;;;;;;13.47;11.13;;;;;;;2.81;78.13;100762.91;4908631;29;20321;-79
2022/03/15 06:29:06;;;;;;;13.27;11.13;;;;;;;3.03;77.17;100767.06;4908402;29;20238;-78
2022/03/15 06:31:33;;;;;;;14.70;11.23;;;;;;;3.20;75.68;100755.72;4904058;29;20249;-78
2022/03/15 06:34:03;;;;;;;14.63;11.37;;;;;;;3.43;74.45;100762.31;4908513;29;20240;-77
2022/03/15 06:36:31;;;;;;;13.53;12.03;;;;;;;3.61;72.65;100767.66;4914576;29;20332;-78
2022/03/15 06:39:00;;;;;;;15.13;12.97;;;;;;;3.77;71.56;100759.06;4901859;29;20237;-78
2022/03/15 06:41:27;;;;;;;14.47;12.10;;;;;;;3.89;69.90;100752.56;4911129;29;20706;-78
2022/03/15 06:43:54;;;;;;;17.13;12.40;;;;;;;4.01;68.10;100761.16;4909238;29;20292;-79
2022/03/15 06:46:20;;;;;;;14.63;12.17;;;;;;;4.14;68.29;100761.63;4914067;29;20243;-79
2022/03/15 06:48:47;;;;;;;15.40;12.53;;;;;;;4.29;66.78;100760.13;4913156;29;20243;-79
2022/03/15 06:51:14;;;;;;;17.90;13.30;;;;;;;4.38;67.72;100761.84;4914061;29;20266;-78
2022/03/15 06:53:43;;;;;;;20.67;14.70;;;;;;;4.56;66.60;100761.84;4908944;29;20341;-78
2022/03/15 06:56:09;;;;;;;18.33;12.50;;;;;;;4.73;65.07;100759.16;4913335;29;20325;-79
2022/03/15 06:58:37;;;;;;;15.10;12.87;;;;;;;4.89;64.11;100769.06;4913055;29;20253;-78
2022/03/15 07:01:04;;;;;;;14.50;13.00;;;;;;;5.06;63.78;100757.56;4913455;29;20238;-78
2022/03/15 07:03:31;;;;;;;19.33;13.87;;;;;;;5.20;62.61;100756.13;4908743;29;20333;-78
2022/03/15 07:05:58;;;;;;;16.43;13.53;;;;;;;5.30;62.56;100749.72;4905843;29;20242;-78
2022/03/15 07:08:24;;;;;;;15.83;13.10;;;;;;;5.38;62.22;100743.59;4913393;29;20285;-78
2022/03/15 07:10:53;;;;;;;15.73;13.80;;;;;;;5.62;62.06;100743.72;4907159;29;20609;-78
2022/03/15 07:13:19;;;;;;;16.20;13.50;;;;;;;5.76;60.85;100753.75;4903015;29;20321;-78
2022/03/15 07:15:46;;;;;;;17.30;14.03;;;;;;;5.87;60.44;100746.50;4907139;29;20326;-78
2022/03/15 07:18:15;;;;;;;15.07;13.47;;;;;;;6.01;59.62;100741.38;4915183;29;20663;-79
2022/03/15 07:20:42;;;;;;;15.83;14.10;;;;;;;6.20;58.53;100724.28;4906164;29;20230;-78
2022/03/15 07:23:09;;;;;;;15.57;13.97;;;;;;;6.40;58.07;100724.75;4906496;29;20230;-78
2022/03/15 07:25:36;;;;;;;18.73;14.00;;;;;;;6.51;58.01;100724.44;4903874;29;20239;-78
2022/03/15 07:28:02;;;;;;;16.80;14.07;;;;;;;6.71;56.85;100716.94;4900869;29;20230;-78
2022/03/15 07:30:29;;;;;;;16.57;13.50;;;;;;;6.89;56.06;100717.59;4910829;29;20642;-79
2022/03/15 07:32:59;;;;;;;16.80;13.97;;;;;;;6.90;56.07;100714.75;4908527;29;20353;-79
2022/03/15 07:35:27;;;;;;;15.57;13.33;;;;;;;7.08;55.61;100720.72;4909101;29;20242;-78
2022/03/15 07:37:55;;;;;;;16.10;13.53;;;;;;;7.18;54.61;100715.19;4903378;29;20317;-78
2022/03/15 07:40:23;;;;;;;15.90;13.87;;;;;;;7.31;54.51;100717.31;4902703;29;20234;-78
2022/03/15 07:42:52;;;;;;;16.07;14.17;;;;;;;7.38;54.88;100715.59;4908078;29;20226;-78
2022/03/15 07:45:19;;;;;;;15.30;13.70;;;;;;;7.57;54.70;100723.19;4913083;29;20266;-78
2022/03/15 07:47:47;;;;;;;15.97;14.27;;;;;;;7.72;54.39;100723.28;4906716;29;20709;-78
2022/03/15 07:50:15;;;;;;;15.33;13.57;;;;;;;7.81;53.29;100712.41;4897933;29;20238;-78
2022/03/15 07:52:42;;;;;;;17.47;13.53;;;;;;;7.97;52.45;100714.16;4904542;29;20285;-78
2022/03/15 07:55:09;;;;;;;16.33;13.73;;;;;;;8.01;51.13;100704.78;4911281;29;20242;-79
2022/03/15 07:57:35;;;;;;;16.00;13.33;;;;;;;8.14;51.23;100710.34;4904713;29;20227;-79
2022/03/15 08:00:03;;;;;;;16.17;14.37;;;;;;;8.27;50.87;100707.09;4909381;29;20302;-78
2022/03/15 08:02:39;;;;;;;17.27;13.80;;;;;;;8.54;50.55;100700.41;4908144;29;20699;-79
2022/03/15 08:05:06;;;;;;;16.50;14.03;;;;;;;8.70;49.78;100702.91;4912885;29;20238;-79
2022/03/15 08:07:35;;;;;;;17.00;14.10;;;;;;;8.88;48.61;100690.03;4908595;29;20710;-78
2022/03/15 08:10:08;;;;;;;17.53;14.53;;;;;;;8.96;49.39;100686.47;4906320;29;20265;-78
2022/03/15 08:12:36;;;;;;;18.47;13.93;;;;;;;9.07;48.98;100688.66;4906767;29;20234;-79
2022/03/15 08:15:04;;;;;;;20.00;14.00;;;;;;;9.18;47.85;100677.53;4905153;29;20242;-79
2022/03/15 08:17:32;;;;;;;16.67;14.20;;;;;;;9.30;47.17;100678.69;4915670;29;20230;-79
2022/03/15 08:19:59;;;;;;;17.00;13.87;;;;;;;9.29;47.47;100675.19;4906805;29;20289;-78
2022/03/15 08:22:28;;;;;;;17.10;14.53;;;;;;;9.45;47.01;100682.19;4902571;29;20706;-78
2022/03/15 08:24:55;;;;;;;16.00;13.87;;;;;;;9.21;47.74;100680.66;4906327;29;20242;-78
2022/03/15 08:27:22;;;;;;;18.03;14.10;;;;;;;9.26;47.41;100685.44;4911407;29;20231;-78
2022/03/15 08:29:49;;;;;;;16.83;14.53;;;;;;;9.45;46.84;100698.25;4911577;29;20240;-79
2022/03/15 08:32:16;;;;;;;16.17;14.13;;;;;;;9.49;46.75;100688.81;4902367;29;20258;-79
2022/03/15 08:34:42;;;;;;;17.80;14.27;;;;;;;9.53;46.36;100665.19;4906949;29;20231;-79
2022/03/15 08:37:10;;;;;;;16.00;14.13;;;;;;;9.59;46.46;100665.28;4914697;29;20258;-79
2022/03/15 08:39:36;;;;;;;17.50;13.77;;;;;;;9.86;46.54;100658.38;4912844;29;20226;-78
2022/03/15 08:42:03;;;;;;;19.23;14.93;;;;;;;9.72;46.42;100652.06;4915874;29;20334;-77
2022/03/15 08:44:30;;;;;;;15.97;14.37;;;;;;;9.87;46.37;100654.69;4912617;29;20258;-78
2022/03/15 08:46:57;;;;;;;17.60;13.63;;;;;;;9.81;46.62;100655.44;4910817;29;20730;-77
2022/03/15 08:49:24;;;;;;;17.10;13.93;;;;;;;9.74;47.50;100657.22;4913300;29;20253;-78
2022/03/15 08:51:51;;;;;;;16.37;13.97;;;;;;;9.95;46.65;100651.06;4909238;29;20230;-78
2022/03/15 08:54:18;;;;;;;19.97;14.57;;;;;;;10.19;46.90;100642.66;4901180;29;20316;-78
2022/03/15 08:56:45;;;;;;;16.00;13.40;;;;;;;10.22;46.15;100636.91;4903297;29;20258;-78
2022/03/15 08:59:15;;;;;;;18.10;14.17;;;;;;;10.10;46.87;100631.22;4905862;29;20230;-77
2022/03/15 09:01:42;;;;;;;16.13;13.73;;;;;;;10.10;47.42;100644.63;4905347;29;20317;-78
2022/03/15 09:04:10;;;;;;;18.57;13.27;;;;;;;10.11;47.48;100640.09;4906163;29;20239;-79
2022/03/15 09:06:37;;;;;;;17.10;13.63;;;;;;;10.31;46.99;100619.69;4905075;29;20764;-77
2022/03/15 09:09:04;;;;;;;16.77;13.30;;;;;;;10.43;46.99;100623.50;4903323;29;20250;-77
2022/03/15 09:11:32;;;;;;;14.60;13.00;;;;;;;10.72;46.21;100617.13;4902900;29;20238;-78
2022/03/15 09:13:59;;;;;;;15.20;12.17;;;;;;;10.97;45.60;100609.41;4900674;29;20295;-79
2022/03/15 09:16:26;;;;;;;15.30;13.10;;;;;;;11.26;45.48;100611.00;4901280;29;20247;-80
2022/03/15 09:18:53;;;;;;;13.80;12.30;;;;;;;11.64;44.74;100606.78;4898254;29;20239;-79
2022/03/15 09:21:20;;;;;;;19.80;13.33;;;;;;;11.97;43.92;100587.25;4897212;29;20710;-77
2022/03/15 09:23:47;;;;;;;14.60;12.50;;;;;;;12.33;43.56;100575.06;4899345;29;20243;-78
2022/03/15 09:26:13;;;;;;;16.17;12.53;;;;;;;12.65;43.19;100569.84;4908252;29;20325;-79
2022/03/15 09:28:41;;;;;;;22.40;16.97;;;;;;;13.07;42.05;100563.91;4900210;29;20244;-79
2022/03/15 09:31:08;;;;;;;29.23;26.33;;;;;;;13.58;41.18;100557.69;4908572;29;20785;-78
2022/03/15 09:33:36;;;;;;;29.13;24.93;;;;;;;14.10;40.01;100559.16;4901668;29;20234;-79
2022/03/15 09:36:04;;;;;;;27.87;24.87;;;;;;;14.33;37.29;100548.59;4904675;29;20741;-79
2022/03/15 09:38:31;;;;;;;45.93;41.17;;;;;;;14.61;36.47;100544.63;4901772;29;20241;-77
2022/03/15 09:41:04;;;;;;;18.20;15.70;;;;;;;14.91;36.14;100535.56;4908085;29;20665;-77
2022/03/15 09:43:37;;;;;;;13.70;10.70;;;;;;;15.17;35.73;100533.56;4908868;29;20309;-79
2022/03/15 09:46:05;;;;;;;10.90;9.90;;;;;;;15.38;34.60;100536.63;4912927;29;20321;-78
2022/03/15 09:48:54;;;;;;;15.70;9.50;;;;;;;15.44;34.28;100537.59;4904522;29;20606;-79
2022/03/15 09:51:21;;;;;;;11.57;9.00;;;;;;;15.50;34.10;100535.81;4906071;29;20259;-78
2022/03/15 09:53:49;;;;;;;11.00;9.30;;;;;;;15.66;34.06;100527.13;4905199;29;20237;-79
2022/03/15 09:56:19;;;;;;;10.73;9.63;;;;;;;15.71;34.10;100513.75;4904795;29;20244;-79
2022/03/15 09:58:46;;;;;;;12.53;9.63;;;;;;;15.77;33.06;100507.41;4903365;29;20270;-78
2022/03/15 10:01:17;;;;;;;10.67;9.17;;;;;;;15.93;33.37;100503.19;4908343;29;20248;-78
2022/03/15 10:03:45;;;;;;;11.43;9.63;;;;;;;15.98;32.73;100498.75;4905955;29;20252;-78
2022/03/15 10:06:15;;;;;;;13.03;10.03;;;;;;;16.15;33.52;100483.47;4908127;29;20319;-77
2022/03/15 10:08:42;;;;;;;11.77;10.57;;;;;;;16.21;32.96;100482.53;4904813;29;20247;-79
2022/03/15 10:11:09;;;;;;;13.10;9.80;;;;;;;16.30;32.82;100475.69;4907633;29;20667;-78
2022/03/15 10:13:36;;;;;;;14.10;10.60;;;;;;;16.47;32.21;100480.41;4903734;29;20294;-77
2022/03/15 10:16:03;;;;;;;13.47;10.30;;;;;;;16.54;32.57;100464.84;4904518;29;20237;-78
2022/03/15 10:18:31;;;;;;;12.33;10.00;;;;;;;16.58;32.36;100460.63;4903713;29;20244;-78
2022/03/15 10:20:57;;;;;;;11.73;9.90;;;;;;;16.63;32.46;100455.34;4908268;29;20268;-78
2022/03/15 10:23:29;;;;;;;12.23;10.30;;;;;;;16.73;32.21;100453.66;4909517;29;20249;-79
2022/03/15 10:25:58;;;;;;;14.37;10.67;;;;;;;16.90;32.22;100450.19;4903612;29;20237;-78
2022/03/15 10:28:25;;;;;;;11.87;10.53;;;;;;;17.06;32.08;100439.41;4905195;29;20792;-78
2022/03/15 10:30:53;;;;;;;10.90;9.57;;;;;;;17.23;31.56;100439.44;4899825;29;20253;-78
2022/03/15 10:33:20;;;;;;;13.50;8.47;;;;;;;17.43;30.49;100430.88;4908838;29;20261;-78
2022/03/15 10:35:53;;;;;;;8.73;7.53;;;;;;;17.63;29.92;100420.41;4908329;29;20358;-78
2022/03/15 10:38:21;;;;;;;8.23;7.40;;;;;;;17.96;29.29;100423.06;4903063;29;20340;-77
2022/03/15 10:40:51;;;;;;;8.40;7.60;;;;;;;18.29;29.06;100416.75;4907217;29;20333;-78
2022/03/15 10:43:23;;;;;;;8.40;7.57;;;;;;;18.81;28.23;100421.75;4908119;29;20338;-77
2022/03/15 10:45:58;;;;;;;8.97;8.07;;;;;;;19.10;27.90;100408.78;4905765;29;20258;-78
2022/03/15 10:48:29;;;;;;;8.50;7.70;;;;;;;19.35;27.69;100415.28;4902167;29;20238;-77
2022/03/15 10:51:05;;;;;;;8.80;8.00;;;;;;;19.31;27.62;100413.34;4899629;29;20334;-78
2022/03/15 10:53:43;;;;;;;10.03;8.90;;;;;;;19.05;28.12;100412.25;4900961;29;20245;-78
2022/03/15 10:56:25;;;;;;;10.80;9.13;;;;;;;18.96;28.40;100407.53;4906361;29;20239;-78
2022/03/15 10:59:04;;;;;;;12.60;9.73;;;;;;;18.96;28.42;100419.22;4902655;29;20310;-78
2022/03/15 11:01:41;;;;;;;9.77;8.77;;;;;;;19.00;28.93;100404.06;4902527;29;20247;-78
2022/03/15 11:04:10;;;;;;;12.37;9.77;;;;;;;19.07;28.58;100404.69;4903195;29;20238;-77
2022/03/15 11:06:41;;;;;;;10.53;8.90;;;;;;;19.17;28.87;100393.94;4905213;29;20244;-77
2022/03/15 11:09:35;;;;;;;10.37;9.33;;;;;;;19.22;28.60;100382.28;4901860;29;20262;-78
2022/03/15 11:12:05;;;;;;;11.57;9.30;;;;;;;19.05;28.92;100376.94;4904681;29;20235;-83
2022/03/15 11:14:57;;;;;;;11.07;9.07;;;;;;;18.92;29.08;100371.94;4905238;29;20238;-78
2022/03/15 11:17:25;;;;;;;8.23;7.37;;;;;;;18.91;28.35;100357.53;4917720;29;20262;-81
2022/03/15 11:20:00;;;;;;;8.77;6.97;;;;;;;19.10;27.35;100355.28;4885509;29;20665;-93
2022/03/15 11:22:34;;;;;;;8.00;5.93;;;;;;;19.07;26.24;100338.69;4872394;29;20242;-75